createdAt,value
2023-08-02T00:00:00.620Z,2.1
2023-08-02T00:05:00.672Z,2.1
2023-08-02T00:10:00.767Z,1.7
2023-08-02T00:15:00.620Z,1.9
2023-08-02T00:20:00.558Z,1.8
2023-08-02T00:25:00.623Z,1.7
2023-08-02T00:30:00.617Z,2.2
2023-08-02T00:35:00.548Z,2.0
2023-08-02T00:40:00.773Z,2.1
2023-08-02T00:45:00.608Z,1.9
2023-08-02T00:50:00.552Z,2.6
2023-08-02T00:55:00.624Z,2.6
2023-08-02T01:00:02.399Z,2.1
2023-08-02T01:05:00.566Z,2.6
2023-08-02T01:10:00.688Z,2.3
2023-08-02T01:15:00.678Z,2.2
2023-08-02T01:20:00.557Z,2.4
2023-08-02T01:25:00.672Z,2.1
2023-08-02T01:30:00.700Z,2.3
2023-08-02T01:35:00.544Z,2.7
2023-08-02T01:40:02.801Z,3.5
2023-08-02T01:45:00.617Z,2.4
2023-08-02T01:50:00.562Z,3.6
2023-08-02T01:55:00.667Z,3.2
2023-08-02T02:00:01.047Z,2.6
2023-08-02T02:05:00.558Z,2.9
2023-08-02T02:10:00.668Z,2.8
2023-08-02T02:15:00.646Z,2.7
2023-08-02T02:20:00.556Z,2.2
2023-08-02T02:25:00.654Z,2.2
2023-08-02T02:30:00.805Z,2.0
2023-08-02T02:35:00.579Z,2.3
2023-08-02T02:40:00.644Z,2.2
2023-08-02T02:45:00.594Z,2.1
2023-08-02T02:50:00.684Z,2.4
2023-08-02T02:55:00.634Z,2.9
2023-08-02T03:00:00.553Z,3.6
2023-08-02T03:05:00.623Z,2.5
2023-08-02T03:10:00.596Z,2.8
2023-08-02T03:15:00.556Z,2.8
2023-08-02T03:20:00.670Z,2.5
2023-08-02T03:25:00.655Z,2.8
2023-08-02T03:30:00.546Z,2.6
2023-08-02T03:35:00.706Z,3.1
2023-08-02T03:40:00.644Z,2.5
2023-08-02T03:45:00.546Z,2.7
2023-08-02T03:50:00.674Z,2.7
2023-08-02T03:55:00.672Z,3.1
2023-08-02T04:00:00.548Z,2.7
2023-08-02T04:05:00.667Z,2.6
2023-08-02T04:10:00.642Z,2.7
2023-08-02T04:15:00.575Z,3.3
2023-08-02T04:20:00.626Z,3.4
2023-08-02T04:25:00.691Z,3.6
2023-08-02T04:30:00.701Z,4.1
2023-08-02T04:35:00.550Z,4.7
2023-08-02T04:40:00.696Z,4.8
2023-08-02T04:45:00.673Z,5.7
2023-08-02T04:50:00.546Z,5.3
2023-08-02T04:55:00.655Z,5.3
2023-08-02T05:00:00.695Z,5.7
2023-08-02T05:05:00.558Z,5.4
2023-08-02T05:10:00.622Z,5.7
2023-08-02T05:15:00.757Z,5.3
2023-08-02T05:20:00.548Z,5.1
2023-08-02T05:25:00.690Z,5.7
2023-08-02T05:30:00.679Z,4.7
2023-08-02T05:35:00.555Z,5.4
2023-08-02T05:40:00.611Z,4.0
2023-08-02T05:45:00.659Z,4.2
2023-08-02T05:50:00.553Z,4.2
2023-08-02T05:55:00.683Z,3.8
2023-08-02T06:00:00.725Z,4.4
2023-08-02T06:05:00.567Z,3.9
2023-08-02T06:10:00.671Z,4.7
2023-08-02T06:15:00.614Z,4.5
2023-08-02T06:20:00.633Z,4.3
2023-08-02T06:25:00.605Z,3.7
2023-08-02T06:30:00.770Z,4.3
2023-08-02T06:35:00.609Z,3.7
2023-08-02T06:40:00.608Z,3.9
2023-08-02T06:45:00.591Z,4.9
2023-08-02T06:50:00.555Z,4.1
2023-08-02T06:55:00.635Z,5.0
2023-08-02T07:00:03.792Z,4.8
2023-08-02T07:05:00.545Z,4.1
2023-08-02T07:10:00.676Z,4.4
2023-08-02T07:15:00.654Z,3.9
2023-08-02T07:20:00.571Z,3.8
2023-08-02T07:25:00.656Z,3.5
2023-08-02T07:30:00.647Z,3.6
2023-08-02T07:35:00.605Z,2.5
2023-08-02T07:40:00.615Z,3.0
2023-08-02T07:45:00.605Z,3.2
2023-08-02T07:50:00.551Z,2.9
2023-08-02T07:55:00.619Z,2.8
2023-08-02T08:00:00.866Z,4.5
2023-08-02T08:05:00.591Z,3.3
2023-08-02T08:10:00.612Z,2.7
2023-08-02T08:15:00.607Z,2.7
2023-08-02T08:20:00.551Z,3.0
2023-08-02T08:25:00.601Z,2.5
2023-08-02T08:30:00.691Z,3.0
2023-08-02T08:35:00.549Z,2.4
2023-08-02T08:40:13.937Z,3.4
2023-08-02T08:45:00.689Z,2.5
2023-08-02T08:50:00.580Z,2.0
2023-08-02T08:55:00.615Z,1.7
2023-08-02T09:00:00.937Z,2.2
2023-08-02T09:05:00.567Z,2.1
2023-08-02T09:10:02.772Z,2.0
2023-08-02T09:15:00.649Z,2.0
2023-08-02T09:20:00.551Z,2.5
2023-08-02T09:25:00.590Z,2.5
2023-08-02T09:30:00.657Z,3.0
2023-08-02T09:35:00.592Z,2.9
2023-08-02T09:40:00.778Z,2.7
2023-08-02T09:45:00.610Z,2.0
2023-08-02T09:50:00.555Z,2.1
2023-08-02T09:55:00.606Z,2.3
2023-08-02T10:00:00.961Z,1.9
2023-08-02T10:05:00.588Z,1.5
2023-08-02T10:10:00.679Z,2.8
2023-08-02T10:15:00.596Z,2.4
2023-08-02T10:20:00.576Z,2.8
2023-08-02T10:25:00.618Z,2.1
2023-08-02T10:30:00.668Z,2.1
2023-08-02T10:35:00.560Z,2.5
2023-08-02T10:40:00.607Z,2.1
2023-08-02T10:45:00.617Z,2.6
2023-08-02T10:50:00.556Z,1.9
2023-08-02T10:55:00.604Z,2.7
2023-08-02T11:00:02.640Z,2.0
2023-08-02T11:05:00.664Z,1.6
2023-08-02T11:10:00.617Z,2.1
2023-08-02T11:15:00.669Z,1.9
2023-08-02T11:25:00.589Z,3.0
2023-08-02T11:30:00.768Z,4.8
2023-08-02T11:35:00.565Z,1.9
2023-08-02T11:40:19.782Z,1.8
2023-08-02T11:45:14.754Z,1.7
2023-08-02T11:50:00.543Z,1.7
2023-08-02T11:55:00.605Z,1.4
2023-08-02T12:00:00.660Z,1.3
2023-08-02T12:05:00.559Z,2.0
2023-08-02T12:10:00.627Z,1.7
2023-08-02T12:15:00.610Z,1.7
2023-08-02T12:20:00.560Z,1.8
2023-08-02T12:25:00.589Z,1.6
2023-08-02T12:30:00.599Z,1.4
2023-08-02T12:35:11.191Z,1.4
2023-08-02T12:40:00.612Z,1.3
2023-08-02T12:45:15.386Z,1.4
2023-08-02T12:50:00.561Z,1.5
2023-08-02T12:55:00.624Z,2.0
2023-08-02T13:00:00.884Z,1.7
2023-08-02T13:05:00.554Z,2.2
2023-08-02T13:10:00.617Z,2.9
2023-08-02T13:15:00.619Z,2.2
2023-08-02T13:20:00.565Z,2.2
2023-08-02T13:25:00.611Z,1.8
2023-08-02T13:30:00.627Z,1.5
2023-08-02T13:35:01.824Z,1.7
2023-08-02T13:40:00.619Z,1.3
2023-08-02T13:45:00.626Z,1.9
2023-08-02T13:50:00.574Z,1.4
2023-08-02T13:55:00.622Z,1.4
2023-08-02T14:00:00.792Z,1.7
2023-08-02T14:05:00.691Z,1.8
2023-08-02T14:10:00.604Z,2.1
2023-08-02T14:15:00.624Z,2.8
2023-08-02T14:20:00.556Z,2.1
2023-08-02T14:25:00.650Z,2.1
2023-08-02T14:30:01.387Z,2.4
2023-08-02T14:35:00.555Z,2.1
2023-08-02T14:40:00.788Z,1.9
2023-08-02T14:45:00.646Z,1.6
2023-08-02T14:50:00.553Z,1.8
2023-08-02T15:00:01.374Z,1.7
2023-08-02T15:05:00.582Z,1.5
2023-08-02T15:10:00.655Z,0.9
2023-08-02T15:15:00.628Z,1.0
2023-08-02T15:20:00.562Z,1.0
2023-08-02T15:25:00.596Z,1.2
2023-08-02T15:30:00.619Z,1.0
2023-08-02T15:35:00.574Z,1.2
2023-08-02T15:40:00.618Z,1.3
2023-08-02T15:45:03.115Z,1.1
2023-08-02T15:50:00.549Z,1.7
2023-08-02T15:55:00.631Z,1.2
2023-08-02T16:00:00.662Z,1.0
2023-08-02T16:05:00.546Z,1.1
2023-08-02T16:10:00.658Z,1.1
2023-08-02T16:15:00.690Z,1.6
2023-08-02T16:20:00.733Z,1.2
2023-08-02T16:25:00.607Z,1.3
2023-08-02T16:30:00.634Z,1.3
2023-08-02T16:35:00.549Z,1.4
2023-08-02T16:40:00.631Z,1.3
2023-08-02T16:45:00.665Z,1.1
2023-08-02T16:50:00.552Z,1.1
2023-08-02T16:55:00.632Z,1.5
2023-08-02T17:00:00.642Z,1.0
2023-08-02T17:05:00.558Z,1.1
2023-08-02T17:10:00.624Z,1.1
2023-08-02T17:15:00.716Z,1.0
2023-08-02T17:20:00.562Z,1.1
2023-08-02T17:25:00.696Z,1.3
2023-08-02T17:30:00.625Z,0.9
2023-08-02T17:35:00.558Z,1.1
2023-08-02T17:40:00.606Z,0.9
2023-08-02T17:45:00.683Z,1.0
2023-08-02T17:50:00.591Z,1.5
2023-08-02T17:55:00.654Z,1.1
2023-08-02T18:00:00.678Z,1.5
2023-08-02T18:05:00.604Z,1.2
2023-08-02T18:10:00.693Z,1.4
2023-08-02T18:15:00.639Z,1.5
2023-08-02T18:20:00.620Z,1.3
2023-08-02T18:25:01.214Z,1.0
2023-08-02T18:30:01.020Z,1.1
2023-08-02T18:35:00.577Z,0.9
2023-08-02T18:40:00.643Z,0.9
2023-08-02T18:45:00.630Z,1.1
2023-08-02T18:50:00.592Z,1.0
2023-08-02T18:55:00.593Z,1.2
2023-08-02T19:00:00.710Z,1.3
2023-08-02T19:05:00.559Z,1.5
2023-08-02T19:10:00.795Z,1.3
2023-08-02T19:15:00.616Z,1.5
2023-08-02T19:20:00.571Z,4.5
2023-08-02T19:25:00.761Z,4.6
2023-08-02T19:30:00.641Z,1.5
2023-08-02T19:35:00.553Z,0.9
2023-08-02T19:40:00.622Z,1.7
2023-08-02T19:45:00.621Z,1.5
2023-08-02T19:50:00.550Z,0.9
2023-08-02T19:55:00.646Z,1.1
2023-08-02T20:00:00.702Z,0.6
2023-08-02T20:05:00.582Z,0.7
2023-08-02T20:10:00.648Z,1.3
2023-08-02T20:15:00.613Z,1.4
2023-08-02T20:20:00.567Z,2.1
2023-08-02T20:25:00.582Z,3.0
2023-08-02T20:30:02.264Z,2.4
2023-08-02T20:35:00.570Z,1.5
2023-08-02T20:40:00.622Z,1.8
2023-08-02T20:45:00.636Z,1.3
2023-08-02T20:50:00.583Z,1.1
2023-08-02T20:55:00.661Z,0.8
2023-08-02T21:00:00.615Z,0.4
2023-08-02T21:05:00.594Z,0.4
2023-08-02T21:10:00.599Z,1.0
2023-08-02T21:15:00.910Z,3.1
2023-08-02T21:20:00.565Z,2.4
2023-08-02T21:25:00.630Z,2.5
2023-08-02T21:30:00.692Z,2.0
2023-08-02T21:35:00.569Z,1.6
2023-08-02T21:40:00.602Z,0.9
2023-08-02T21:45:00.608Z,1.1
2023-08-02T21:50:00.545Z,1.0
2023-08-02T21:55:00.599Z,0.7
2023-08-02T22:00:02.919Z,1.0
2023-08-02T22:05:00.574Z,1.2
2023-08-02T22:10:00.790Z,1.4
2023-08-02T22:15:00.577Z,1.4
2023-08-02T22:20:00.561Z,0.9
2023-08-02T22:25:00.599Z,0.5
2023-08-02T22:30:00.608Z,1.4
2023-08-02T22:35:00.585Z,0.7
2023-08-02T22:40:00.631Z,0.8
2023-08-02T22:45:00.556Z,0.9
2023-08-02T22:55:00.609Z,3.8
2023-08-02T23:00:00.557Z,2.4
2023-08-02T23:05:00.553Z,2.0
2023-08-02T23:10:00.615Z,1.8
2023-08-02T23:15:00.601Z,1.7
2023-08-02T23:20:00.549Z,1.3
2023-08-02T23:25:00.590Z,1.0
2023-08-02T23:30:00.552Z,0.8
2023-08-02T23:35:00.617Z,0.9
2023-08-02T23:40:00.609Z,0.4
2023-08-02T23:45:00.585Z,1.6
2023-08-02T23:50:00.564Z,0.7
2023-08-02T23:55:00.805Z,0.6
